sensor_id;sensor_type;location;lat;lon;timestamp;pressure;altitude;pressure_sealevel;temperature;humidity
33859;BME280;20156;47.486;12.074;2023-04-23T00:01:26;94328.72;;;10.21;100.00
33859;BME280;20156;47.486;12.074;2023-04-23T00:03:55;94333.19;;;10.44;100.00
33859;BME280;20156;47.486;12.074;2023-04-23T00:06:22;94327.44;;;10.42;100.00
33859;BME280;20156;47.486;12.074;2023-04-23T00:08:52;94332.06;;;10.51;100.00
33859;BME280;20156;47.486;12.074;2023-04-23T00:11:18;94319.50;;;10.37;100.00
33859;BME280;20156;47.486;12.074;2023-04-23T00:13:43;94303.88;;;10.25;100.00
33859;BME280;20156;47.486;12.074;2023-04-23T00:16:11;94285.59;;;10.32;100.00
33859;BME280;20156;47.486;12.074;2023-04-23T00:18:37;94289.56;;;10.46;100.00
33859;BME280;20156;47.486;12.074;2023-04-23T00:21:02;94301.84;;;10.39;100.00
33859;BME280;20156;47.486;12.074;2023-04-23T00:23:28;94284.66;;;10.38;100.00
33859;BME280;20156;47.486;12.074;2023-04-23T00:25:53;94298.47;;;10.50;100.00
33859;BME280;20156;47.486;12.074;2023-04-23T00:28:19;94295.91;;;10.62;100.00
33859;BME280;20156;47.486;12.074;2023-04-23T00:30:45;94299.41;;;10.67;100.00
33859;BME280;20156;47.486;12.074;2023-04-23T00:33:10;94292.94;;;9.93;100.00
33859;BME280;20156;47.486;12.074;2023-04-23T00:35:35;94275.78;;;9.92;100.00
33859;BME280;20156;47.486;12.074;2023-04-23T00:38:01;94266.75;;;10.06;100.00
33859;BME280;20156;47.486;12.074;2023-04-23T00:40:26;94275.06;;;10.27;100.00
33859;BME280;20156;47.486;12.074;2023-04-23T00:42:52;94280.84;;;10.29;100.00
33859;BME280;20156;47.486;12.074;2023-04-23T00:45:18;94286.81;;;10.41;100.00
33859;BME280;20156;47.486;12.074;2023-04-23T00:47:44;94284.91;;;10.36;100.00
33859;BME280;20156;47.486;12.074;2023-04-23T00:50:10;94292.25;;;10.51;100.00
33859;BME280;20156;47.486;12.074;2023-04-23T00:52:37;94297.34;;;10.58;100.00
33859;BME280;20156;47.486;12.074;2023-04-23T00:55:08;94293.19;;;10.45;100.00
33859;BME280;20156;47.486;12.074;2023-04-23T00:57:35;94287.63;;;10.00;100.00
33859;BME280;20156;47.486;12.074;2023-04-23T01:00:02;94263.31;;;9.82;100.00
33859;BME280;20156;47.486;12.074;2023-04-23T01:02:29;94262.78;;;10.04;100.00
33859;BME280;20156;47.486;12.074;2023-04-23T01:04:55;94280.84;;;10.29;100.00
33859;BME280;20156;47.486;12.074;2023-04-23T01:07:22;94290.44;;;10.40;100.00
33859;BME280;20156;47.486;12.074;2023-04-23T01:09:49;94290.00;;;10.31;100.00
33859;BME280;20156;47.486;12.074;2023-04-23T01:12:15;94296.09;;;10.37;100.00
33859;BME280;20156;47.486;12.074;2023-04-23T01:14:41;94287.38;;;10.31;100.00
33859;BME280;20156;47.486;12.074;2023-04-23T01:17:07;94280.91;;;10.22;100.00
33859;BME280;20156;47.486;12.074;2023-04-23T01:19:34;94273.69;;;10.24;100.00
33859;BME280;20156;47.486;12.074;2023-04-23T01:22:00;94279.34;;;10.21;100.00
33859;BME280;20156;47.486;12.074;2023-04-23T01:24:27;94269.00;;;10.03;100.00
33859;BME280;20156;47.486;12.074;2023-04-23T01:26:53;94257.72;;;10.09;100.00
33859;BME280;20156;47.486;12.074;2023-04-23T01:29:19;94252.63;;;10.02;100.00
33859;BME280;20156;47.486;12.074;2023-04-23T01:31:46;94243.91;;;9.97;100.00
33859;BME280;20156;47.486;12.074;2023-04-23T01:34:12;94224.34;;;9.82;100.00
33859;BME280;20156;47.486;12.074;2023-04-23T01:36:38;94205.38;;;9.82;100.00
33859;BME280;20156;47.486;12.074;2023-04-23T01:39:05;94180.41;;;9.81;100.00
33859;BME280;20156;47.486;12.074;2023-04-23T01:41:31;94171.63;;;9.82;100.00
33859;BME280;20156;47.486;12.074;2023-04-23T01:43:57;94160.25;;;9.53;100.00
33859;BME280;20156;47.486;12.074;2023-04-23T01:46:23;94136.69;;;9.54;100.00
33859;BME280;20156;47.486;12.074;2023-04-23T01:48:49;93937.88;;;9.70;100.00
33859;BME280;20156;47.486;12.074;2023-04-23T01:51:15;93940.72;;;9.57;100.00
33859;BME280;20156;47.486;12.074;2023-04-23T01:53:40;93940.63;;;9.63;100.00
33859;BME280;20156;47.486;12.074;2023-04-23T01:56:07;93938.03;;;9.63;100.00
33859;BME280;20156;47.486;12.074;2023-04-23T01:58:34;93950.38;;;9.85;100.00
33859;BME280;20156;47.486;12.074;2023-04-23T02:00:59;93985.22;;;9.60;100.00
33859;BME280;20156;47.486;12.074;2023-04-23T02:03:25;93995.03;;;9.47;100.00
33859;BME280;20156;47.486;12.074;2023-04-23T02:05:52;93993.13;;;9.42;100.00
33859;BME280;20156;47.486;12.074;2023-04-23T02:08:18;93969.63;;;9.60;100.00
33859;BME280;20156;47.486;12.074;2023-04-23T02:10:44;93956.44;;;9.62;100.00
33859;BME280;20156;47.486;12.074;2023-04-23T02:13:09;93965.25;;;9.26;100.00
33859;BME280;20156;47.486;12.074;2023-04-23T02:15:34;93939.97;;;8.98;100.00
33859;BME280;20156;47.486;12.074;2023-04-23T02:18:02;93911.78;;;9.25;100.00
33859;BME280;20156;47.486;12.074;2023-04-23T02:20:28;93920.09;;;9.39;100.00
33859;BME280;20156;47.486;12.074;2023-04-23T02:22:53;93924.66;;;8.96;100.00
33859;BME280;20156;47.486;12.074;2023-04-23T02:25:19;93881.13;;;8.98;100.00
33859;BME280;20156;47.486;12.074;2023-04-23T02:27:46;93874.59;;;9.08;100.00
33859;BME280;20156;47.486;12.074;2023-04-23T02:30:12;93885.16;;;9.06;100.00
33859;BME280;20156;47.486;12.074;2023-04-23T02:32:38;93861.72;;;9.01;100.00
33859;BME280;20156;47.486;12.074;2023-04-23T02:35:04;93865.88;;;9.25;100.00
33859;BME280;20156;47.486;12.074;2023-04-23T02:37:34;93877.78;;;9.38;100.00
33859;BME280;20156;47.486;12.074;2023-04-23T02:40:00;93896.81;;;9.55;100.00
33859;BME280;20156;47.486;12.074;2023-04-23T02:42:25;93925.19;;;9.45;100.00
33859;BME280;20156;47.486;12.074;2023-04-23T02:44:51;93931.16;;;9.22;100.00
33859;BME280;20156;47.486;12.074;2023-04-23T02:47:16;93891.59;;;9.03;100.00
33859;BME280;20156;47.486;12.074;2023-04-23T02:49:42;94026.63;;;9.32;100.00
33859;BME280;20156;47.486;12.074;2023-04-23T02:52:07;94036.59;;;9.58;100.00
33859;BME280;20156;47.486;12.074;2023-04-23T02:54:32;94050.56;;;9.69;100.00
33859;BME280;20156;47.486;12.074;2023-04-23T02:56:58;94050.47;;;9.41;100.00
33859;BME280;20156;47.486;12.074;2023-04-23T02:59:24;94031.59;;;9.45;100.00
33859;BME280;20156;47.486;12.074;2023-04-23T03:01:49;94020.09;;;9.53;100.00
33859;BME280;20156;47.486;12.074;2023-04-23T03:04:16;94019.19;;;9.59;100.00
33859;BME280;20156;47.486;12.074;2023-04-23T03:06:42;94027.09;;;9.52;100.00
33859;BME280;20156;47.486;12.074;2023-04-23T03:09:07;94040.84;;;9.64;100.00
33859;BME280;20156;47.486;12.074;2023-04-23T03:11:33;94048.66;;;9.64;100.00
33859;BME280;20156;47.486;12.074;2023-04-23T03:13:58;94036.22;;;9.67;100.00
33859;BME280;20156;47.486;12.074;2023-04-23T03:16:26;94029.69;;;9.41;100.00
33859;BME280;20156;47.486;12.074;2023-04-23T03:18:52;93970.56;;;9.31;100.00
33859;BME280;20156;47.486;12.074;2023-04-23T03:21:17;93918.41;;;9.44;100.00
33859;BME280;20156;47.486;12.074;2023-04-23T03:23:43;93925.72;;;9.59;100.00
33859;BME280;20156;47.486;12.074;2023-04-23T03:26:08;93931.34;;;9.68;100.00
33859;BME280;20156;47.486;12.074;2023-04-23T03:28:33;93965.00;;;9.62;100.00
33859;BME280;20156;47.486;12.074;2023-04-23T03:30:59;93971.56;;;9.53;100.00
33859;BME280;20156;47.486;12.074;2023-04-23T03:33:24;93978.09;;;9.68;100.00
33859;BME280;20156;47.486;12.074;2023-04-23T03:35:50;94011.38;;;9.82;100.00
33859;BME280;20156;47.486;12.074;2023-04-23T03:38:15;94041.19;;;9.80;100.00
33859;BME280;20156;47.486;12.074;2023-04-23T03:40:41;94056.53;;;9.81;100.00
33859;BME280;20156;47.486;12.074;2023-04-23T03:43:06;94078.81;;;9.77;100.00
33859;BME280;20156;47.486;12.074;2023-04-23T03:45:31;94094.59;;;9.76;100.00
33859;BME280;20156;47.486;12.074;2023-04-23T03:47:57;94091.44;;;9.62;100.00
33859;BME280;20156;47.486;12.074;2023-04-23T03:50:22;94093.47;;;9.72;100.00
33859;BME280;20156;47.486;12.074;2023-04-23T03:52:47;94102.94;;;9.89;100.00
33859;BME280;20156;47.486;12.074;2023-04-23T03:55:13;94109.84;;;9.95;100.00
33859;BME280;20156;47.486;12.074;2023-04-23T03:57:38;94123.63;;;9.96;100.00
33859;BME280;20156;47.486;12.074;2023-04-23T04:00:05;94122.81;;;9.84;100.00
33859;BME280;20156;47.486;12.074;2023-04-23T04:02:36;94123.59;;;9.61;100.00
33859;BME280;20156;47.486;12.074;2023-04-23T04:05:01;94106.34;;;9.67;100.00
33859;BME280;20156;47.486;12.074;2023-04-23T04:07:27;94103.50;;;9.68;100.00
33859;BME280;20156;47.486;12.074;2023-04-23T04:09:52;94110.19;;;9.76;100.00
33859;BME280;20156;47.486;12.074;2023-04-23T04:12:18;94124.97;;;9.87;100.00
33859;BME280;20156;47.486;12.074;2023-04-23T04:14:44;94126.78;;;9.86;100.00
33859;BME280;20156;47.486;12.074;2023-04-23T04:17:10;94148.63;;;9.55;100.00
33859;BME280;20156;47.486;12.074;2023-04-23T04:19:37;94123.31;;;9.39;100.00
33859;BME280;20156;47.486;12.074;2023-04-23T04:22:02;94101.13;;;9.43;100.00
33859;BME280;20156;47.486;12.074;2023-04-23T04:24:28;94095.25;;;9.48;100.00
33859;BME280;20156;47.486;12.074;2023-04-23T04:26:59;94091.75;;;9.54;100.00
33859;BME280;20156;47.486;12.074;2023-04-23T04:29:25;94109.28;;;9.58;100.00
33859;BME280;20156;47.486;12.074;2023-04-23T04:31:51;94115.25;;;9.59;100.00
33859;BME280;20156;47.486;12.074;2023-04-23T04:34:17;94118.88;;;9.70;100.00
33859;BME280;20156;47.486;12.074;2023-04-23T04:36:42;94133.56;;;9.76;100.00
33859;BME280;20156;47.486;12.074;2023-04-23T04:39:08;94139.78;;;9.75;100.00
33859;BME280;20156;47.486;12.074;2023-04-23T04:41:35;94131.25;;;9.56;100.00
33859;BME280;20156;47.486;12.074;2023-04-23T04:44:00;94110.50;;;9.56;100.00
33859;BME280;20156;47.486;12.074;2023-04-23T04:46:26;94065.94;;;9.59;100.00
33859;BME280;20156;47.486;12.074;2023-04-23T04:48:53;94033.06;;;9.64;100.00
33859;BME280;20156;47.486;12.074;2023-04-23T04:51:19;94044.69;;;9.74;100.00
33859;BME280;20156;47.486;12.074;2023-04-23T04:53:45;94047.72;;;9.71;100.00
33859;BME280;20156;47.486;12.074;2023-04-23T04:56:10;94059.38;;;9.80;100.00
33859;BME280;20156;47.486;12.074;2023-04-23T04:58:36;94071.44;;;9.98;100.00
33859;BME280;20156;47.486;12.074;2023-04-23T05:01:01;94074.69;;;10.05;100.00
33859;BME280;20156;47.486;12.074;2023-04-23T05:03:27;94070.97;;;10.01;100.00
33859;BME280;20156;47.486;12.074;2023-04-23T05:05:53;94106.56;;;10.12;100.00
33859;BME280;20156;47.486;12.074;2023-04-23T05:08:23;94160.56;;;10.21;100.00
33859;BME280;20156;47.486;12.074;2023-04-23T05:10:49;94157.88;;;10.28;100.00
33859;BME280;20156;47.486;12.074;2023-04-23T05:13:15;94217.78;;;10.33;100.00
33859;BME280;20156;47.486;12.074;2023-04-23T05:15:41;94267.63;;;10.42;100.00
33859;BME280;20156;47.486;12.074;2023-04-23T05:18:09;94256.44;;;10.41;100.00
33859;BME280;20156;47.486;12.074;2023-04-23T05:20:35;94226.22;;;10.40;100.00
33859;BME280;20156;47.486;12.074;2023-04-23T05:23:01;94195.81;;;10.41;100.00
33859;BME280;20156;47.486;12.074;2023-04-23T05:25:28;94181.38;;;10.45;100.00
33859;BME280;20156;47.486;12.074;2023-04-23T05:27:54;94190.44;;;10.42;100.00
33859;BME280;20156;47.486;12.074;2023-04-23T05:30:20;94209.28;;;10.49;100.00
33859;BME280;20156;47.486;12.074;2023-04-23T05:32:45;94189.41;;;10.43;100.00
33859;BME280;20156;47.486;12.074;2023-04-23T05:35:11;94175.25;;;10.39;100.00
33859;BME280;20156;47.486;12.074;2023-04-23T05:37:36;94178.00;;;10.44;100.00
33859;BME280;20156;47.486;12.074;2023-04-23T05:40:02;94207.25;;;10.51;100.00
33859;BME280;20156;47.486;12.074;2023-04-23T05:42:29;94222.38;;;10.54;100.00
33859;BME280;20156;47.486;12.074;2023-04-23T05:44:55;94242.88;;;10.63;100.00
33859;BME280;20156;47.486;12.074;2023-04-23T05:47:20;94273.50;;;10.72;100.00
33859;BME280;20156;47.486;12.074;2023-04-23T05:49:45;94285.25;;;10.75;100.00
33859;BME280;20156;47.486;12.074;2023-04-23T05:52:11;94257.56;;;10.69;100.00
33859;BME280;20156;47.486;12.074;2023-04-23T05:54:37;94197.72;;;10.69;100.00
33859;BME280;20156;47.486;12.074;2023-04-23T05:57:03;94240.59;;;10.66;100.00
33859;BME280;20156;47.486;12.074;2023-04-23T05:59:30;94272.25;;;10.75;100.00
33859;BME280;20156;47.486;12.074;2023-04-23T06:01:56;94302.00;;;10.79;100.00
33859;BME280;20156;47.486;12.074;2023-04-23T06:04:22;94328.69;;;10.86;100.00
33859;BME280;20156;47.486;12.074;2023-04-23T06:06:47;94323.25;;;10.88;100.00
33859;BME280;20156;47.486;12.074;2023-04-23T06:09:13;94255.03;;;10.85;100.00
33859;BME280;20156;47.486;12.074;2023-04-23T06:11:38;94282.19;;;10.90;100.00
33859;BME280;20156;47.486;12.074;2023-04-23T06:14:04;94318.50;;;10.96;100.00
33859;BME280;20156;47.486;12.074;2023-04-23T06:16:29;94331.94;;;11.05;100.00
33859;BME280;20156;47.486;12.074;2023-04-23T06:18:55;94350.19;;;10.93;100.00
33859;BME280;20156;47.486;12.074;2023-04-23T06:21:23;94317.59;;;11.02;100.00
33859;BME280;20156;47.486;12.074;2023-04-23T06:23:49;94340.22;;;11.02;100.00
33859;BME280;20156;47.486;12.074;2023-04-23T06:26:15;94348.13;;;11.07;100.00
33859;BME280;20156;47.486;12.074;2023-04-23T06:28:42;94339.75;;;11.17;100.00
33859;BME280;20156;47.486;12.074;2023-04-23T06:31:07;94296.06;;;11.19;100.00
33859;BME280;20156;47.486;12.074;2023-04-23T06:33:33;94246.47;;;11.25;100.00
33859;BME280;20156;47.486;12.074;2023-04-23T06:36:00;94184.22;;;11.24;100.00
33859;BME280;20156;47.486;12.074;2023-04-23T06:38:26;94253.63;;;11.18;100.00
33859;BME280;20156;47.486;12.074;2023-04-23T06:40:51;94254.94;;;11.32;100.00
33859;BME280;20156;47.486;12.074;2023-04-23T06:43:17;94232.28;;;11.44;100.00
33859;BME280;20156;47.486;12.074;2023-04-23T06:45:42;94262.81;;;11.49;100.00
33859;BME280;20156;47.486;12.074;2023-04-23T06:48:08;94259.09;;;11.45;100.00
33859;BME280;20156;47.486;12.074;2023-04-23T06:50:33;94263.38;;;11.51;100.00
33859;BME280;20156;47.486;12.074;2023-04-23T06:52:59;94269.66;;;11.67;100.00
33859;BME280;20156;47.486;12.074;2023-04-23T06:55:24;94316.72;;;11.49;100.00
33859;BME280;20156;47.486;12.074;2023-04-23T06:57:54;94320.13;;;11.49;100.00
33859;BME280;20156;47.486;12.074;2023-04-23T07:00:21;94326.59;;;11.47;100.00
33859;BME280;20156;47.486;12.074;2023-04-23T07:02:46;94321.75;;;11.67;100.00
33859;BME280;20156;47.486;12.074;2023-04-23T07:05:12;94319.50;;;11.99;100.00
33859;BME280;20156;47.486;12.074;2023-04-23T07:07:37;94333.53;;;12.10;100.00
33859;BME280;20156;47.486;12.074;2023-04-23T07:10:05;94351.47;;;12.23;100.00
33859;BME280;20156;47.486;12.074;2023-04-23T07:12:31;94348.56;;;12.36;100.00
33859;BME280;20156;47.486;12.074;2023-04-23T07:14:56;94413.97;;;12.18;100.00
33859;BME280;20156;47.486;12.074;2023-04-23T07:17:22;94432.91;;;12.13;100.00
33859;BME280;20156;47.486;12.074;2023-04-23T07:19:47;94450.56;;;12.23;100.00
33859;BME280;20156;47.486;12.074;2023-04-23T07:22:13;94471.25;;;12.41;100.00
33859;BME280;20156;47.486;12.074;2023-04-23T07:24:38;94504.25;;;12.47;100.00
33859;BME280;20156;47.486;12.074;2023-04-23T07:27:05;94505.88;;;12.65;100.00
33859;BME280;20156;47.486;12.074;2023-04-23T07:29:30;94529.47;;;12.58;100.00
33859;BME280;20156;47.486;12.074;2023-04-23T07:31:56;94533.91;;;12.58;100.00
33859;BME280;20156;47.486;12.074;2023-04-23T07:34:21;94537.72;;;13.24;100.00
33859;BME280;20156;47.486;12.074;2023-04-23T07:36:47;94554.53;;;13.45;100.00
33859;BME280;20156;47.486;12.074;2023-04-23T07:39:12;94586.06;;;13.72;100.00
33859;BME280;20156;47.486;12.074;2023-04-23T07:41:38;94596.50;;;13.89;100.00
33859;BME280;20156;47.486;12.074;2023-04-23T07:44:03;94613.63;;;13.96;100.00
33859;BME280;20156;47.486;12.074;2023-04-23T07:46:29;94627.88;;;13.89;100.00
33859;BME280;20156;47.486;12.074;2023-04-23T07:48:54;94620.94;;;14.93;100.00
33859;BME280;20156;47.486;12.074;2023-04-23T07:51:20;94628.06;;;14.76;100.00
33859;BME280;20156;47.486;12.074;2023-04-23T07:53:47;94598.06;;;14.84;100.00
33859;BME280;20156;47.486;12.074;2023-04-23T07:56:15;94582.31;;;14.79;100.00
33859;BME280;20156;47.486;12.074;2023-04-23T07:58:41;94567.03;;;15.24;100.00
33859;BME280;20156;47.486;12.074;2023-04-23T08:01:06;94566.44;;;15.12;100.00
33859;BME280;20156;47.486;12.074;2023-04-23T08:03:32;94571.22;;;15.20;100.00
33859;BME280;20156;47.486;12.074;2023-04-23T08:05:57;94578.19;;;14.88;100.00
33859;BME280;20156;47.486;12.074;2023-04-23T08:08:23;94582.44;;;15.16;100.00
33859;BME280;20156;47.486;12.074;2023-04-23T08:10:48;94571.69;;;15.76;100.00
33859;BME280;20156;47.486;12.074;2023-04-23T08:13:13;94569.56;;;15.41;100.00
33859;BME280;20156;47.486;12.074;2023-04-23T08:15:39;94574.72;;;15.95;100.00
33859;BME280;20156;47.486;12.074;2023-04-23T08:18:05;94561.84;;;16.31;100.00
33859;BME280;20156;47.486;12.074;2023-04-23T08:20:30;94550.53;;;16.82;100.00
33859;BME280;20156;47.486;12.074;2023-04-23T08:22:56;94557.44;;;17.19;100.00
33859;BME280;20156;47.486;12.074;2023-04-23T08:25:21;94546.66;;;17.21;100.00
33859;BME280;20156;47.486;12.074;2023-04-23T08:27:47;94531.69;;;17.21;100.00
33859;BME280;20156;47.486;12.074;2023-04-23T08:30:13;94541.94;;;17.43;100.00
33859;BME280;20156;47.486;12.074;2023-04-23T08:32:39;94547.22;;;17.33;100.00
33859;BME280;20156;47.486;12.074;2023-04-23T08:35:07;94548.75;;;17.13;100.00
33859;BME280;20156;47.486;12.074;2023-04-23T08:37:33;94566.59;;;17.01;100.00
33859;BME280;20156;47.486;12.074;2023-04-23T08:40:00;94566.09;;;17.04;100.00
33859;BME280;20156;47.486;12.074;2023-04-23T08:45:20;94561.38;;;17.17;100.00
33859;BME280;20156;47.486;12.074;2023-04-23T08:47:46;94564.25;;;17.10;100.00
33859;BME280;20156;47.486;12.074;2023-04-23T08:50:13;94560.59;;;17.21;100.00
33859;BME280;20156;47.486;12.074;2023-04-23T08:52:41;94545.38;;;17.49;100.00
33859;BME280;20156;47.486;12.074;2023-04-23T08:55:08;94561.25;;;16.76;100.00
33859;BME280;20156;47.486;12.074;2023-04-23T08:57:39;94547.44;;;17.16;100.00
33859;BME280;20156;47.486;12.074;2023-04-23T09:00:09;94557.16;;;17.10;100.00
33859;BME280;20156;47.486;12.074;2023-04-23T09:02:40;94533.53;;;17.66;100.00
33859;BME280;20156;47.486;12.074;2023-04-23T09:05:06;94506.31;;;18.37;100.00
33859;BME280;20156;47.486;12.074;2023-04-23T09:07:33;94514.09;;;17.72;100.00
33859;BME280;20156;47.486;12.074;2023-04-23T09:09:59;94483.31;;;17.83;100.00
33859;BME280;20156;47.486;12.074;2023-04-23T09:12:25;94500.84;;;18.18;100.00
33859;BME280;20156;47.486;12.074;2023-04-23T09:14:51;94470.59;;;18.16;100.00
33859;BME280;20156;47.486;12.074;2023-04-23T09:17:19;94459.63;;;17.58;100.00
33859;BME280;20156;47.486;12.074;2023-04-23T09:19:45;94476.44;;;17.62;100.00
33859;BME280;20156;47.486;12.074;2023-04-23T09:22:11;94461.47;;;17.67;100.00
33859;BME280;20156;47.486;12.074;2023-04-23T09:24:40;94447.78;;;17.70;100.00
33859;BME280;20156;47.486;12.074;2023-04-23T09:27:05;94439.16;;;18.34;100.00
33859;BME280;20156;47.486;12.074;2023-04-23T09:29:31;94423.53;;;18.53;100.00
33859;BME280;20156;47.486;12.074;2023-04-23T09:32:08;94426.72;;;18.50;100.00
33859;BME280;20156;47.486;12.074;2023-04-23T09:34:35;94416.41;;;17.99;100.00
33859;BME280;20156;47.486;12.074;2023-04-23T09:37:01;94422.91;;;18.17;100.00
33859;BME280;20156;47.486;12.074;2023-04-23T09:39:28;94421.81;;;19.46;100.00
33859;BME280;20156;47.486;12.074;2023-04-23T09:41:54;94388.31;;;19.17;100.00
33859;BME280;20156;47.486;12.074;2023-04-23T09:44:30;94404.03;;;17.95;100.00
33859;BME280;20156;47.486;12.074;2023-04-23T09:47:05;94420.47;;;17.31;100.00
33859;BME280;20156;47.486;12.074;2023-04-23T09:49:31;94444.88;;;17.67;100.00
33859;BME280;20156;47.486;12.074;2023-04-23T09:52:04;94438.06;;;17.40;100.00
33859;BME280;20156;47.486;12.074;2023-04-23T09:54:30;94463.56;;;17.60;100.00
33859;BME280;20156;47.486;12.074;2023-04-23T09:56:57;94438.63;;;18.38;100.00
33859;BME280;20156;47.486;12.074;2023-04-23T09:59:29;94440.00;;;18.25;100.00
33859;BME280;20156;47.486;12.074;2023-04-23T10:01:55;94442.38;;;18.21;100.00
33859;BME280;20156;47.486;12.074;2023-04-23T10:04:23;94444.53;;;18.04;100.00
33859;BME280;20156;47.486;12.074;2023-04-23T10:06:58;94446.56;;;18.32;100.00
33859;BME280;20156;47.486;12.074;2023-04-23T10:09:26;94439.25;;;18.14;100.00
33859;BME280;20156;47.486;12.074;2023-04-23T10:11:56;94419.56;;;18.56;100.00
33859;BME280;20156;47.486;12.074;2023-04-23T10:14:24;94400.97;;;18.37;100.00
33859;BME280;20156;47.486;12.074;2023-04-23T10:17:01;94416.16;;;18.50;100.00
33859;BME280;20156;47.486;12.074;2023-04-23T10:19:28;94402.09;;;18.70;100.00
33859;BME280;20156;47.486;12.074;2023-04-23T10:21:59;94378.16;;;18.67;100.00
33859;BME280;20156;47.486;12.074;2023-04-23T10:24:31;94374.19;;;19.03;100.00
33859;BME280;20156;47.486;12.074;2023-04-23T10:26:59;94381.50;;;18.33;100.00
33859;BME280;20156;47.486;12.074;2023-04-23T10:29:30;94376.16;;;18.87;100.00
33859;BME280;20156;47.486;12.074;2023-04-23T10:31:58;94342.72;;;18.83;100.00
33859;BME280;20156;47.486;12.074;2023-04-23T10:34:24;94347.31;;;18.62;100.00
33859;BME280;20156;47.486;12.074;2023-04-23T10:36:50;94328.19;;;18.85;100.00
33859;BME280;20156;47.486;12.074;2023-04-23T10:39:20;94333.25;;;18.77;100.00
33859;BME280;20156;47.486;12.074;2023-04-23T10:41:47;94324.16;;;18.59;100.00
33859;BME280;20156;47.486;12.074;2023-04-23T10:44:14;94334.44;;;18.66;100.00
33859;BME280;20156;47.486;12.074;2023-04-23T10:46:52;94333.47;;;18.46;100.00
33859;BME280;20156;47.486;12.074;2023-04-23T10:49:18;94322.16;;;18.80;100.00
33859;BME280;20156;47.486;12.074;2023-04-23T10:51:47;94314.31;;;18.75;100.00
33859;BME280;20156;47.486;12.074;2023-04-23T10:54:14;94332.16;;;18.49;100.00
33859;BME280;20156;47.486;12.074;2023-04-23T10:56:40;94292.50;;;18.98;100.00
33859;BME280;20156;47.486;12.074;2023-04-23T10:59:19;94288.94;;;18.84;100.00
33859;BME280;20156;47.486;12.074;2023-04-23T11:01:55;94268.53;;;18.26;100.00
33859;BME280;20156;47.486;12.074;2023-04-23T11:04:29;94292.06;;;18.13;100.00
33859;BME280;20156;47.486;12.074;2023-04-23T11:09:45;94255.75;;;18.49;100.00
33859;BME280;20156;47.486;12.074;2023-04-23T11:14:54;94205.50;;;18.98;100.00
33859;BME280;20156;47.486;12.074;2023-04-23T11:20:19;94164.13;;;18.99;100.00
33859;BME280;20156;47.486;12.074;2023-04-23T11:22:46;94155.28;;;19.08;100.00
33859;BME280;20156;47.486;12.074;2023-04-23T11:25:20;94121.31;;;19.44;100.00
33859;BME280;20156;47.486;12.074;2023-04-23T11:27:47;94110.06;;;18.96;100.00
33859;BME280;20156;47.486;12.074;2023-04-23T11:30:17;94109.09;;;19.11;100.00
33859;BME280;20156;47.486;12.074;2023-04-23T11:32:54;94131.59;;;19.65;100.00
33859;BME280;20156;47.486;12.074;2023-04-23T11:35:24;94096.22;;;19.85;100.00
33859;BME280;20156;47.486;12.074;2023-04-23T11:37:52;94024.00;;;20.35;100.00
33859;BME280;20156;47.486;12.074;2023-04-23T11:40:18;94053.69;;;19.86;100.00
33859;BME280;20156;47.486;12.074;2023-04-23T11:42:53;94049.72;;;19.70;100.00
33859;BME280;20156;47.486;12.074;2023-04-23T11:47:48;94051.84;;;20.00;100.00
33859;BME280;20156;47.486;12.074;2023-04-23T11:50:22;94030.63;;;19.40;100.00
33859;BME280;20156;47.486;12.074;2023-04-23T11:52:48;93993.97;;;20.18;100.00
33859;BME280;20156;47.486;12.074;2023-04-23T11:55:14;93960.00;;;19.83;100.00
33859;BME280;20156;47.486;12.074;2023-04-23T11:57:50;93943.19;;;19.93;100.00
33859;BME280;20156;47.486;12.074;2023-04-23T12:00:16;93946.59;;;19.66;100.00
33859;BME280;20156;47.486;12.074;2023-04-23T12:02:55;93901.56;;;20.67;100.00
33859;BME280;20156;47.486;12.074;2023-04-23T12:05:27;93938.25;;;21.05;100.00
33859;BME280;20156;47.486;12.074;2023-04-23T12:07:53;93934.25;;;21.16;100.00
33859;BME280;20156;47.486;12.074;2023-04-23T12:10:20;93901.09;;;20.88;100.00
33859;BME280;20156;47.486;12.074;2023-04-23T12:12:52;93896.97;;;20.82;100.00
33859;BME280;20156;47.486;12.074;2023-04-23T12:15:18;93866.94;;;20.78;100.00
33859;BME280;20156;47.486;12.074;2023-04-23T12:17:50;93816.06;;;20.72;100.00
33859;BME280;20156;47.486;12.074;2023-04-23T12:20:20;93848.94;;;21.33;100.00
33859;BME280;20156;47.486;12.074;2023-04-23T12:22:46;93828.13;;;21.40;100.00
33859;BME280;20156;47.486;12.074;2023-04-23T12:25:12;93764.56;;;21.31;100.00
33859;BME280;20156;47.486;12.074;2023-04-23T12:27:39;93854.69;;;21.04;100.00
33859;BME280;20156;47.486;12.074;2023-04-23T12:30:06;93801.69;;;20.42;100.00
33859;BME280;20156;47.486;12.074;2023-04-23T12:32:32;93838.47;;;20.02;100.00
33859;BME280;20156;47.486;12.074;2023-04-23T12:34:58;93813.53;;;20.31;100.00
33859;BME280;20156;47.486;12.074;2023-04-23T12:37:29;93815.88;;;20.68;100.00
33859;BME280;20156;47.486;12.074;2023-04-23T12:39:55;93765.66;;;21.30;100.00
33859;BME280;20156;47.486;12.074;2023-04-23T12:42:23;93712.97;;;21.12;100.00
33859;BME280;20156;47.486;12.074;2023-04-23T12:44:49;93729.31;;;21.62;100.00
33859;BME280;20156;47.486;12.074;2023-04-23T12:47:15;93768.63;;;21.86;100.00
33859;BME280;20156;47.486;12.074;2023-04-23T12:49:44;93734.22;;;21.29;100.00
33859;BME280;20156;47.486;12.074;2023-04-23T12:52:09;93719.84;;;21.21;100.00
33859;BME280;20156;47.486;12.074;2023-04-23T12:54:36;93684.31;;;21.79;100.00